sensor_id;sensor_type;location;lat;lon;timestamp;temperature;humidity
67186;HTU21D;54116;53.518;49.398;2022-11-21T00:00:35;-0.37;118.99
67186;HTU21D;54116;53.518;49.398;2022-11-21T00:03:01;-0.37;118.99
67186;HTU21D;54116;53.518;49.398;2022-11-21T00:05:28;-0.36;118.99
67186;HTU21D;54116;53.518;49.398;2022-11-21T00:07:55;-0.36;118.99
67186;HTU21D;54116;53.518;49.398;2022-11-21T00:10:21;-0.37;118.99
67186;HTU21D;54116;53.518;49.398;2022-11-21T00:12:55;-0.36;118.99
67186;HTU21D;54116;53.518;49.398;2022-11-21T00:15:23;-0.36;118.99
67186;HTU21D;54116;53.518;49.398;2022-11-21T00:17:49;-0.34;118.99
67186;HTU21D;54116;53.518;49.398;2022-11-21T00:20:16;-0.37;118.99
67186;HTU21D;54116;53.518;49.398;2022-11-21T00:22:43;-0.38;118.99
67186;HTU21D;54116;53.518;49.398;2022-11-21T00:25:09;-0.36;118.99
67186;HTU21D;54116;53.518;49.398;2022-11-21T00:27:35;-0.36;118.99
67186;HTU21D;54116;53.518;49.398;2022-11-21T00:30:02;-0.37;118.99
67186;HTU21D;54116;53.518;49.398;2022-11-21T00:32:28;-0.32;118.99
67186;HTU21D;54116;53.518;49.398;2022-11-21T00:34:54;-0.30;118.99
67186;HTU21D;54116;53.518;49.398;2022-11-21T00:37:20;-0.31;118.99
67186;HTU21D;54116;53.518;49.398;2022-11-21T00:39:46;-0.35;118.99
67186;HTU21D;54116;53.518;49.398;2022-11-21T00:42:12;-0.37;118.99
67186;HTU21D;54116;53.518;49.398;2022-11-21T00:44:38;-0.37;118.99
67186;HTU21D;54116;53.518;49.398;2022-11-21T00:47:04;-0.35;118.99
67186;HTU21D;54116;53.518;49.398;2022-11-21T00:49:30;-0.36;118.99
67186;HTU21D;54116;53.518;49.398;2022-11-21T00:51:56;-0.37;118.99
67186;HTU21D;54116;53.518;49.398;2022-11-21T00:54:22;-0.36;118.99
67186;HTU21D;54116;53.518;49.398;2022-11-21T00:56:48;-0.36;118.99
67186;HTU21D;54116;53.518;49.398;2022-11-21T00:59:14;-0.36;118.99
67186;HTU21D;54116;53.518;49.398;2022-11-21T01:01:40;-0.35;118.99
67186;HTU21D;54116;53.518;49.398;2022-11-21T01:04:06;-0.35;118.99
67186;HTU21D;54116;53.518;49.398;2022-11-21T01:06:32;-0.35;118.99
67186;HTU21D;54116;53.518;49.398;2022-11-21T01:08:58;-0.32;118.99
67186;HTU21D;54116;53.518;49.398;2022-11-21T01:11:24;-0.34;118.99
67186;HTU21D;54116;53.518;49.398;2022-11-21T01:13:52;-0.32;118.99
67186;HTU21D;54116;53.518;49.398;2022-11-21T01:16:20;-0.31;118.99
67186;HTU21D;54116;53.518;49.398;2022-11-21T01:18:47;-0.31;118.99
67186;HTU21D;54116;53.518;49.398;2022-11-21T01:21:22;-0.31;118.99
67186;HTU21D;54116;53.518;49.398;2022-11-21T01:23:49;-0.30;118.99
67186;HTU21D;54116;53.518;49.398;2022-11-21T01:26:17;-0.32;118.99
67186;HTU21D;54116;53.518;49.398;2022-11-21T01:28:43;-0.34;118.99
67186;HTU21D;54116;53.518;49.398;2022-11-21T01:33:40;-0.36;118.99
67186;HTU21D;54116;53.518;49.398;2022-11-21T01:36:15;-0.34;118.99
67186;HTU21D;54116;53.518;49.398;2022-11-21T01:38:44;-0.35;118.99
67186;HTU21D;54116;53.518;49.398;2022-11-21T01:41:12;-0.36;118.99
67186;HTU21D;54116;53.518;49.398;2022-11-21T01:43:39;-0.36;118.99
67186;HTU21D;54116;53.518;49.398;2022-11-21T01:54:27;-0.37;118.99
67186;HTU21D;54116;53.518;49.398;2022-11-21T01:59:25;-0.34;118.99
67186;HTU21D;54116;53.518;49.398;2022-11-21T02:01:53;-0.37;118.99
67186;HTU21D;54116;53.518;49.398;2022-11-21T02:04:21;-0.40;118.99
67186;HTU21D;54116;53.518;49.398;2022-11-21T02:06:48;-0.41;118.99
67186;HTU21D;54116;53.518;49.398;2022-11-21T02:09:14;-0.40;118.99
67186;HTU21D;54116;53.518;49.398;2022-11-21T02:12:01;-0.41;118.99
67186;HTU21D;54116;53.518;49.398;2022-11-21T02:14:30;-0.42;118.99
67186;HTU21D;54116;53.518;49.398;2022-11-21T02:16:59;-0.43;118.99
67186;HTU21D;54116;53.518;49.398;2022-11-21T02:19:43;-0.45;118.99
67186;HTU21D;54116;53.518;49.398;2022-11-21T02:22:42;-0.44;118.99
67186;HTU21D;54116;53.518;49.398;2022-11-21T02:25:29;-0.47;118.99
67186;HTU21D;54116;53.518;49.398;2022-11-21T02:28:02;-0.49;118.99
67186;HTU21D;54116;53.518;49.398;2022-11-21T02:30:30;-0.54;118.99
67186;HTU21D;54116;53.518;49.398;2022-11-21T02:32:56;-0.52;118.99
67186;HTU21D;54116;53.518;49.398;2022-11-21T02:35:23;-0.52;118.99
67186;HTU21D;54116;53.518;49.398;2022-11-21T02:43:35;-0.53;118.99
67186;HTU21D;54116;53.518;49.398;2022-11-21T02:46:03;-0.53;118.99
67186;HTU21D;54116;53.518;49.398;2022-11-21T02:48:29;-0.54;118.99
67186;HTU21D;54116;53.518;49.398;2022-11-21T02:50:55;-0.54;118.99
67186;HTU21D;54116;53.518;49.398;2022-11-21T02:53:21;-0.55;118.99
67186;HTU21D;54116;53.518;49.398;2022-11-21T02:55:47;-0.56;118.99
67186;HTU21D;54116;53.518;49.398;2022-11-21T02:58:13;-0.55;118.99
67186;HTU21D;54116;53.518;49.398;2022-11-21T03:00:40;-0.53;118.99
67186;HTU21D;54116;53.518;49.398;2022-11-21T03:03:06;-0.51;118.99
67186;HTU21D;54116;53.518;49.398;2022-11-21T03:05:33;-0.52;118.99
67186;HTU21D;54116;53.518;49.398;2022-11-21T03:07:59;-0.51;118.99
67186;HTU21D;54116;53.518;49.398;2022-11-21T03:10:25;-0.55;118.99
67186;HTU21D;54116;53.518;49.398;2022-11-21T03:12:51;-0.56;118.99
67186;HTU21D;54116;53.518;49.398;2022-11-21T03:15:27;-0.55;118.99
67186;HTU21D;54116;53.518;49.398;2022-11-21T03:17:54;-0.55;118.99
67186;HTU21D;54116;53.518;49.398;2022-11-21T03:20:20;-0.54;118.99
67186;HTU21D;54116;53.518;49.398;2022-11-21T03:22:46;-0.57;118.99
67186;HTU21D;54116;53.518;49.398;2022-11-21T03:25:12;-0.55;118.99
67186;HTU21D;54116;53.518;49.398;2022-11-21T03:27:38;-0.53;118.99
67186;HTU21D;54116;53.518;49.398;2022-11-21T03:30:05;-0.52;118.99
67186;HTU21D;54116;53.518;49.398;2022-11-21T03:32:31;-0.53;118.99
67186;HTU21D;54116;53.518;49.398;2022-11-21T03:34:57;-0.51;118.99
67186;HTU21D;54116;53.518;49.398;2022-11-21T03:37:23;-0.56;118.99
67186;HTU21D;54116;53.518;49.398;2022-11-21T03:39:49;-0.57;118.99
67186;HTU21D;54116;53.518;49.398;2022-11-21T03:42:15;-0.59;118.99
67186;HTU21D;54116;53.518;49.398;2022-11-21T03:44:41;-0.58;118.99
67186;HTU21D;54116;53.518;49.398;2022-11-21T03:47:07;-0.55;118.99
67186;HTU21D;54116;53.518;49.398;2022-11-21T03:49:33;-0.53;118.99
67186;HTU21D;54116;53.518;49.398;2022-11-21T03:51:59;-0.52;118.99
67186;HTU21D;54116;53.518;49.398;2022-11-21T03:54:25;-0.53;118.99
67186;HTU21D;54116;53.518;49.398;2022-11-21T03:56:51;-0.56;118.99
67186;HTU21D;54116;53.518;49.398;2022-11-21T03:59:17;-0.55;118.99
67186;HTU21D;54116;53.518;49.398;2022-11-21T04:01:43;-0.58;118.99
67186;HTU21D;54116;53.518;49.398;2022-11-21T04:04:09;-0.56;118.99
67186;HTU21D;54116;53.518;49.398;2022-11-21T04:06:35;-0.60;118.99
67186;HTU21D;54116;53.518;49.398;2022-11-21T04:09:01;-0.60;118.99
67186;HTU21D;54116;53.518;49.398;2022-11-21T04:11:26;-0.64;118.99
67186;HTU21D;54116;53.518;49.398;2022-11-21T04:13:53;-0.67;118.95
67186;HTU21D;54116;53.518;49.398;2022-11-21T04:16:19;-0.68;118.69
67186;HTU21D;54116;53.518;49.398;2022-11-21T04:18:45;-0.70;118.65
67186;HTU21D;54116;53.518;49.398;2022-11-21T04:21:11;-0.71;118.28
67186;HTU21D;54116;53.518;49.398;2022-11-21T04:23:37;-0.72;118.11
67186;HTU21D;54116;53.518;49.398;2022-11-21T04:26:03;-0.70;118.15
67186;HTU21D;54116;53.518;49.398;2022-11-21T04:28:30;-0.71;118.04
67186;HTU21D;54116;53.518;49.398;2022-11-21T04:31:01;-0.74;117.89
67186;HTU21D;54116;53.518;49.398;2022-11-21T04:33:28;-0.74;117.68
67186;HTU21D;54116;53.518;49.398;2022-11-21T04:35:54;-0.74;117.88
67186;HTU21D;54116;53.518;49.398;2022-11-21T04:38:20;-0.72;117.79
67186;HTU21D;54116;53.518;49.398;2022-11-21T04:40:46;-0.73;117.33
67186;HTU21D;54116;53.518;49.398;2022-11-21T04:43:12;-0.74;117.16
67186;HTU21D;54116;53.518;49.398;2022-11-21T04:45:38;-0.75;117.02
67186;HTU21D;54116;53.518;49.398;2022-11-21T04:48:04;-0.75;116.97
67186;HTU21D;54116;53.518;49.398;2022-11-21T04:50:30;-0.77;116.52
67186;HTU21D;54116;53.518;49.398;2022-11-21T04:52:56;-0.76;116.62
67186;HTU21D;54116;53.518;49.398;2022-11-21T04:55:29;-0.79;116.38
67186;HTU21D;54116;53.518;49.398;2022-11-21T04:57:56;-0.79;116.31
67186;HTU21D;54116;53.518;49.398;2022-11-21T05:00:22;-0.77;116.26
67186;HTU21D;54116;53.518;49.398;2022-11-21T05:02:48;-0.75;116.34
67186;HTU21D;54116;53.518;49.398;2022-11-21T05:05:14;-0.74;116.06
67186;HTU21D;54116;53.518;49.398;2022-11-21T05:07:40;-0.79;115.42
67186;HTU21D;54116;53.518;49.398;2022-11-21T05:10:07;-0.77;115.63
67186;HTU21D;54116;53.518;49.398;2022-11-21T05:12:33;-0.74;115.36
67186;HTU21D;54116;53.518;49.398;2022-11-21T05:15:18;-0.73;115.47
67186;HTU21D;54116;53.518;49.398;2022-11-21T05:17:44;-0.70;115.84
67186;HTU21D;54116;53.518;49.398;2022-11-21T05:20:10;-0.71;115.26
67186;HTU21D;54116;53.518;49.398;2022-11-21T05:22:37;-0.73;115.11
67186;HTU21D;54116;53.518;49.398;2022-11-21T05:25:03;-0.70;115.38
67186;HTU21D;54116;53.518;49.398;2022-11-21T05:27:29;-0.68;115.32
67186;HTU21D;54116;53.518;49.398;2022-11-21T05:29:55;-0.64;115.64
67186;HTU21D;54116;53.518;49.398;2022-11-21T05:32:21;-0.57;115.32
67186;HTU21D;54116;53.518;49.398;2022-11-21T05:34:48;-0.54;115.11
67186;HTU21D;54116;53.518;49.398;2022-11-21T05:37:14;-0.51;114.62
67186;HTU21D;54116;53.518;49.398;2022-11-21T05:39:40;-0.50;114.14
67186;HTU21D;54116;53.518;49.398;2022-11-21T05:42:05;-0.49;114.10
67186;HTU21D;54116;53.518;49.398;2022-11-21T05:44:32;-0.51;114.56
67186;HTU21D;54116;53.518;49.398;2022-11-21T05:46:58;-0.50;114.67
67186;HTU21D;54116;53.518;49.398;2022-11-21T05:49:24;-0.52;114.17
67186;HTU21D;54116;53.518;49.398;2022-11-21T05:51:50;-0.46;114.84
67186;HTU21D;54116;53.518;49.398;2022-11-21T05:54:16;-0.49;114.32
67186;HTU21D;54116;53.518;49.398;2022-11-21T05:56:42;-0.49;114.25
67186;HTU21D;54116;53.518;49.398;2022-11-21T05:59:09;-0.47;114.71
67186;HTU21D;54116;53.518;49.398;2022-11-21T06:01:36;-0.46;114.24
67186;HTU21D;54116;53.518;49.398;2022-11-21T06:04:21;-0.47;114.40
67186;HTU21D;54116;53.518;49.398;2022-11-21T06:06:47;-0.47;114.16
67186;HTU21D;54116;53.518;49.398;2022-11-21T06:09:13;-0.43;114.48
67186;HTU21D;54116;53.518;49.398;2022-11-21T06:11:39;-0.38;114.51
67186;HTU21D;54116;53.518;49.398;2022-11-21T06:14:05;-0.36;114.08
67186;HTU21D;54116;53.518;49.398;2022-11-21T06:16:31;-0.26;114.31
67186;HTU21D;54116;53.518;49.398;2022-11-21T06:18:57;-0.23;113.67
67186;HTU21D;54116;53.518;49.398;2022-11-21T06:21:26;-0.26;113.11
67186;HTU21D;54116;53.518;49.398;2022-11-21T06:23:54;-0.21;113.49
67186;HTU21D;54116;53.518;49.398;2022-11-21T06:26:23;-0.19;112.85
67186;HTU21D;54116;53.518;49.398;2022-11-21T06:28:50;-0.13;113.41
67186;HTU21D;54116;53.518;49.398;2022-11-21T06:31:20;-0.14;112.49
67186;HTU21D;54116;53.518;49.398;2022-11-21T06:33:51;-0.20;112.89
67186;HTU21D;54116;53.518;49.398;2022-11-21T06:36:17;-0.16;113.24
67186;HTU21D;54116;53.518;49.398;2022-11-21T06:38:44;-0.16;112.89
67186;HTU21D;54116;53.518;49.398;2022-11-21T06:41:19;-0.12;113.03
67186;HTU21D;54116;53.518;49.398;2022-11-21T06:43:45;-0.10;112.83
67186;HTU21D;54116;53.518;49.398;2022-11-21T06:46:12;-0.08;112.74
67186;HTU21D;54116;53.518;49.398;2022-11-21T06:48:38;-0.01;112.77
67186;HTU21D;54116;53.518;49.398;2022-11-21T06:51:26;0.02;111.98
67186;HTU21D;54116;53.518;49.398;2022-11-21T06:53:53;0.03;111.71
67186;HTU21D;54116;53.518;49.398;2022-11-21T06:56:21;0.17;112.80
67186;HTU21D;54116;53.518;49.398;2022-11-21T06:58:47;0.24;111.77
67186;HTU21D;54116;53.518;49.398;2022-11-21T07:01:13;0.25;110.95
67186;HTU21D;54116;53.518;49.398;2022-11-21T07:03:39;0.21;110.49
67186;HTU21D;54116;53.518;49.398;2022-11-21T07:06:05;0.25;110.51
67186;HTU21D;54116;53.518;49.398;2022-11-21T07:08:33;0.31;109.83
67186;HTU21D;54116;53.518;49.398;2022-11-21T07:11:04;0.34;109.29
67186;HTU21D;54116;53.518;49.398;2022-11-21T07:13:31;0.29;109.10
67186;HTU21D;54116;53.518;49.398;2022-11-21T07:16:05;0.33;109.06
67186;HTU21D;54116;53.518;49.398;2022-11-21T07:18:33;0.42;109.83
67186;HTU21D;54116;53.518;49.398;2022-11-21T07:21:03;0.51;108.56
67186;HTU21D;54116;53.518;49.398;2022-11-21T07:23:30;0.63;109.01
67186;HTU21D;54116;53.518;49.398;2022-11-21T07:26:04;0.72;108.50
67186;HTU21D;54116;53.518;49.398;2022-11-21T07:28:31;0.73;107.27
67186;HTU21D;54116;53.518;49.398;2022-11-21T07:30:58;0.67;106.65
67186;HTU21D;54116;53.518;49.398;2022-11-21T07:33:24;0.75;108.41
67186;HTU21D;54116;53.518;49.398;2022-11-21T07:35:50;0.86;108.64
67186;HTU21D;54116;53.518;49.398;2022-11-21T07:38:17;0.87;107.62
67186;HTU21D;54116;53.518;49.398;2022-11-21T07:40:42;0.77;105.63
67186;HTU21D;54116;53.518;49.398;2022-11-21T07:43:09;0.68;105.41
67186;HTU21D;54116;53.518;49.398;2022-11-21T07:45:35;0.63;105.34
67186;HTU21D;54116;53.518;49.398;2022-11-21T07:48:04;0.55;105.21
67186;HTU21D;54116;53.518;49.398;2022-11-21T07:50:30;0.51;105.79
67186;HTU21D;54116;53.518;49.398;2022-11-21T07:52:57;0.58;106.26
67186;HTU21D;54116;53.518;49.398;2022-11-21T07:55:24;0.61;105.08
67186;HTU21D;54116;53.518;49.398;2022-11-21T07:58:00;0.63;105.69
67186;HTU21D;54116;53.518;49.398;2022-11-21T08:00:28;0.72;106.21
67186;HTU21D;54116;53.518;49.398;2022-11-21T08:02:55;0.86;106.90
67186;HTU21D;54116;53.518;49.398;2022-11-21T08:05:21;0.83;103.47
67186;HTU21D;54116;53.518;49.398;2022-11-21T08:07:47;0.83;105.26
67186;HTU21D;54116;53.518;49.398;2022-11-21T08:10:14;0.84;104.43
67186;HTU21D;54116;53.518;49.398;2022-11-21T08:12:39;0.78;104.39
67186;HTU21D;54116;53.518;49.398;2022-11-21T08:15:06;0.69;103.88
67186;HTU21D;54116;53.518;49.398;2022-11-21T08:17:33;0.64;104.21
67186;HTU21D;54116;53.518;49.398;2022-11-21T08:19:59;0.63;105.11
67186;HTU21D;54116;53.518;49.398;2022-11-21T08:22:25;0.62;105.40
67186;HTU21D;54116;53.518;49.398;2022-11-21T08:24:51;0.67;104.30
67186;HTU21D;54116;53.518;49.398;2022-11-21T08:27:21;0.64;102.78
67186;HTU21D;54116;53.518;49.398;2022-11-21T08:29:49;0.68;103.80
67186;HTU21D;54116;53.518;49.398;2022-11-21T08:32:15;0.82;103.97
67186;HTU21D;54116;53.518;49.398;2022-11-21T08:34:41;0.95;102.47
67186;HTU21D;54116;53.518;49.398;2022-11-21T08:37:07;1.10;102.59
67186;HTU21D;54116;53.518;49.398;2022-11-21T08:39:33;1.13;99.42
67186;HTU21D;54116;53.518;49.398;2022-11-21T08:41:59;1.13;100.83
67186;HTU21D;54116;53.518;49.398;2022-11-21T08:44:29;1.12;99.56
67186;HTU21D;54116;53.518;49.398;2022-11-21T08:46:55;1.04;101.20
67186;HTU21D;54116;53.518;49.398;2022-11-21T08:49:22;0.93;101.85
67186;HTU21D;54116;53.518;49.398;2022-11-21T08:51:48;0.94;104.32
67186;HTU21D;54116;53.518;49.398;2022-11-21T08:54:16;0.87;101.49
67186;HTU21D;54116;53.518;49.398;2022-11-21T08:56:43;0.73;101.14
67186;HTU21D;54116;53.518;49.398;2022-11-21T08:59:10;0.75;102.12
67186;HTU21D;54116;53.518;49.398;2022-11-21T09:01:36;0.68;101.29
67186;HTU21D;54116;53.518;49.398;2022-11-21T09:04:04;0.57;100.37
67186;HTU21D;54116;53.518;49.398;2022-11-21T09:06:30;0.54;101.22
67186;HTU21D;54116;53.518;49.398;2022-11-21T09:08:56;0.48;101.87
67186;HTU21D;54116;53.518;49.398;2022-11-21T09:11:22;0.46;102.06
67186;HTU21D;54116;53.518;49.398;2022-11-21T09:13:53;0.43;103.25
67186;HTU21D;54116;53.518;49.398;2022-11-21T09:16:37;0.36;104.20
67186;HTU21D;54116;53.518;49.398;2022-11-21T09:19:22;0.34;105.35
67186;HTU21D;54116;53.518;49.398;2022-11-21T09:21:49;0.38;106.58
67186;HTU21D;54116;53.518;49.398;2022-11-21T09:24:16;0.44;105.08
67186;HTU21D;54116;53.518;49.398;2022-11-21T09:26:42;0.45;103.79
67186;HTU21D;54116;53.518;49.398;2022-11-21T09:29:08;0.42;103.53
67186;HTU21D;54116;53.518;49.398;2022-11-21T09:31:43;0.42;103.38
67186;HTU21D;54116;53.518;49.398;2022-11-21T09:34:09;0.36;104.06
67186;HTU21D;54116;53.518;49.398;2022-11-21T09:36:36;0.36;104.79
67186;HTU21D;54116;53.518;49.398;2022-11-21T09:39:03;0.39;105.91
67186;HTU21D;54116;53.518;49.398;2022-11-21T09:49:44;0.31;105.70
67186;HTU21D;54116;53.518;49.398;2022-11-21T09:52:14;0.36;105.54
67186;HTU21D;54116;53.518;49.398;2022-11-21T09:54:49;0.35;105.18
67186;HTU21D;54116;53.518;49.398;2022-11-21T09:57:19;0.40;105.52
67186;HTU21D;54116;53.518;49.398;2022-11-21T09:59:47;0.37;104.76
67186;HTU21D;54116;53.518;49.398;2022-11-21T10:02:18;0.31;105.02
67186;HTU21D;54116;53.518;49.398;2022-11-21T10:04:46;0.30;105.27
67186;HTU21D;54116;53.518;49.398;2022-11-21T10:07:16;0.31;105.16
67186;HTU21D;54116;53.518;49.398;2022-11-21T10:09:46;0.30;103.96
67186;HTU21D;54116;53.518;49.398;2022-11-21T10:12:50;0.13;105.08
67186;HTU21D;54116;53.518;49.398;2022-11-21T10:20:56;0.15;105.89
67186;HTU21D;54116;53.518;49.398;2022-11-21T10:23:51;0.17;106.71
67186;HTU21D;54116;53.518;49.398;2022-11-21T10:31:47;0.27;105.79
67186;HTU21D;54116;53.518;49.398;2022-11-21T10:34:24;0.30;106.51
67186;HTU21D;54116;53.518;49.398;2022-11-21T10:37:02;0.34;105.94
67186;HTU21D;54116;53.518;49.398;2022-11-21T10:39:40;0.32;105.34
67186;HTU21D;54116;53.518;49.398;2022-11-21T10:44:48;0.23;106.53
67186;HTU21D;54116;53.518;49.398;2022-11-21T10:47:34;0.25;106.87
67186;HTU21D;54116;53.518;49.398;2022-11-21T10:52:44;0.18;106.23
67186;HTU21D;54116;53.518;49.398;2022-11-21T10:55:13;0.19;107.03
67186;HTU21D;54116;53.518;49.398;2022-11-21T10:57:49;0.22;108.18
67186;HTU21D;54116;53.518;49.398;2022-11-21T11:00:19;0.19;107.62
67186;HTU21D;54116;53.518;49.398;2022-11-21T11:05:26;0.09;107.73
67186;HTU21D;54116;53.518;49.398;2022-11-21T11:13:00;0.02;109.65
67186;HTU21D;54116;53.518;49.398;2022-11-21T11:18:22;0.01;109.97
67186;HTU21D;54116;53.518;49.398;2022-11-21T11:20:49;0.04;110.18
67186;HTU21D;54116;53.518;49.398;2022-11-21T11:23:25;0.04;109.94
67186;HTU21D;54116;53.518;49.398;2022-11-21T11:25:58;0.05;109.16
67186;HTU21D;54116;53.518;49.398;2022-11-21T11:28:26;0.01;108.81
67186;HTU21D;54116;53.518;49.398;2022-11-21T11:30:58;0.01;108.43
67186;HTU21D;54116;53.518;49.398;2022-11-21T11:33:36;-0.00;108.55
67186;HTU21D;54116;53.518;49.398;2022-11-21T11:38:56;-0.02;110.01
67186;HTU21D;54116;53.518;49.398;2022-11-21T11:44:31;-0.07;110.00
67186;HTU21D;54116;53.518;49.398;2022-11-21T11:47:23;-0.09;109.84
67186;HTU21D;54116;53.518;49.398;2022-11-21T11:50:04;-0.12;109.55
67186;HTU21D;54116;53.518;49.398;2022-11-21T11:52:58;-0.15;109.07
67186;HTU21D;54116;53.518;49.398;2022-11-21T11:55:35;-0.17;109.68
67186;HTU21D;54116;53.518;49.398;2022-11-21T11:58:07;-0.19;110.24
67186;HTU21D;54116;53.518;49.398;2022-11-21T12:03:35;-0.21;110.37
67186;HTU21D;54116;53.518;49.398;2022-11-21T12:06:14;-0.21;110.26
67186;HTU21D;54116;53.518;49.398;2022-11-21T12:08:53;-0.22;110.84
67186;HTU21D;54116;53.518;49.398;2022-11-21T12:17:33;-0.28;112.35
67186;HTU21D;54116;53.518;49.398;2022-11-21T12:20:03;-0.29;112.45
67186;HTU21D;54116;53.518;49.398;2022-11-21T12:22:33;-0.32;112.43
67186;HTU21D;54116;53.518;49.398;2022-11-21T12:24:59;-0.36;112.25
67186;HTU21D;54116;53.518;49.398;2022-11-21T12:27:28;-0.38;112.29
67186;HTU21D;54116;53.518;49.398;2022-11-21T12:44:35;-0.54;111.97
67186;HTU21D;54116;53.518;49.398;2022-11-21T12:50:17;-0.61;112.06
67186;HTU21D;54116;53.518;49.398;2022-11-21T12:53:15;-0.61;112.00
67186;HTU21D;54116;53.518;49.398;2022-11-21T12:56:11;-0.64;112.46
67186;HTU21D;54116;53.518;49.398;2022-11-21T12:58:41;-0.60;112.94
67186;HTU21D;54116;53.518;49.398;2022-11-21T13:03:49;-0.65;113.30
67186;HTU21D;54116;53.518;49.398;2022-11-21T13:06:25;-0.69;114.06
67186;HTU21D;54116;53.518;49.398;2022-11-21T13:08:53;-0.70;114.30
67186;HTU21D;54116;53.518;49.398;2022-11-21T13:14:32;-0.77;113.64
67186;HTU21D;54116;53.518;49.398;2022-11-21T13:17:22;-0.76;114.34
67186;HTU21D;54116;53.518;49.398;2022-11-21T13:27:36;-0.74;114.28
67186;HTU21D;54116;53.518;49.398;2022-11-21T13:32:54;-0.73;114.60
67186;HTU21D;54116;53.518;49.398;2022-11-21T13:45:49;-0.77;114.48
67186;HTU21D;54116;53.518;49.398;2022-11-21T14:08:23;-0.81;113.99
67186;HTU21D;54116;53.518;49.398;2022-11-21T14:10:50;-0.81;113.81
67186;HTU21D;54116;53.518;49.398;2022-11-21T14:13:33;-0.79;114.07
67186;HTU21D;54116;53.518;49.398;2022-11-21T14:16:22;-0.76;114.47
67186;HTU21D;54116;53.518;49.398;2022-11-21T14:18:50;-0.77;114.31
67186;HTU21D;54116;53.518;49.398;2022-11-21T14:21:20;-0.76;114.47
67186;HTU21D;54116;53.518;49.398;2022-11-21T14:23:47;-0.76;114.08
67186;HTU21D;54116;53.518;49.398;2022-11-21T14:26:15;-0.82;113.30
67186;HTU21D;54116;53.518;49.398;2022-11-21T14:28:44;-0.87;113.16
67186;HTU21D;54116;53.518;49.398;2022-11-21T14:31:11;-0.89;113.15
67186;HTU21D;54116;53.518;49.398;2022-11-21T14:33:42;-0.89;113.62
67186;HTU21D;54116;53.518;49.398;2022-11-21T14:38:43;-0.91;113.80
67186;HTU21D;54116;53.518;49.398;2022-11-21T14:43:48;-0.90;114.20
67186;HTU21D;54116;53.518;49.398;2022-11-21T14:46:18;-0.89;114.29
67186;HTU21D;54116;53.518;49.398;2022-11-21T14:48:44;-0.90;113.57
67186;HTU21D;54116;53.518;49.398;2022-11-21T14:51:15;-0.94;113.36
67186;HTU21D;54116;53.518;49.398;2022-11-21T14:53:43;-0.97;113.25
67186;HTU21D;54116;53.518;49.398;2022-11-21T14:56:22;-0.99;113.34
67186;HTU21D;54116;53.518;49.398;2022-11-21T14:58:53;-1.03;113.23
67186;HTU21D;54116;53.518;49.398;2022-11-21T15:01:31;-1.04;113.19
67186;HTU21D;54116;53.518;49.398;2022-11-21T15:04:04;-1.03;114.15
67186;HTU21D;54116;53.518;49.398;2022-11-21T15:06:40;-1.03;114.00
67186;HTU21D;54116;53.518;49.398;2022-11-21T15:09:13;-1.03;113.96
67186;HTU21D;54116;53.518;49.398;2022-11-21T15:11:54;-1.04;113.84
67186;HTU21D;54116;53.518;49.398;2022-11-21T15:14:29;-1.08;113.55
67186;HTU21D;54116;53.518;49.398;2022-11-21T15:16:57;-1.10;113.62
67186;HTU21D;54116;53.518;49.398;2022-11-21T15:19:26;-1.11;113.80
67186;HTU21D;54116;53.518;49.398;2022-11-21T15:21:57;-1.09;113.83
67186;HTU21D;54116;53.518;49.398;2022-11-21T15:24:40;-1.12;113.59
67186;HTU21D;54116;53.518;49.398;2022-11-21T15:33:10;-1.21;113.41
67186;HTU21D;54116;53.518;49.398;2022-11-21T15:38:21;-1.23;114.17
67186;HTU21D;54116;53.518;49.398;2022-11-21T15:43:52;-1.24;113.72
67186;HTU21D;54116;53.518;49.398;2022-11-21T15:46:31;-1.25;113.81
67186;HTU21D;54116;53.518;49.398;2022-11-21T15:49:00;-1.25;113.91
67186;HTU21D;54116;53.518;49.398;2022-11-21T15:51:43;-1.28;113.53
67186;HTU21D;54116;53.518;49.398;2022-11-21T15:54:12;-1.30;113.71
67186;HTU21D;54116;53.518;49.398;2022-11-21T15:56:38;-1.25;114.55
67186;HTU21D;54116;53.518;49.398;2022-11-21T15:59:06;-1.18;115.30
67186;HTU21D;54116;53.518;49.398;2022-11-21T16:01:32;-1.15;114.73
67186;HTU21D;54116;53.518;49.398;2022-11-21T16:04:09;-1.19;114.22
67186;HTU21D;54116;53.518;49.398;2022-11-21T16:06:36;-1.18;114.34
67186;HTU21D;54116;53.518;49.398;2022-11-21T16:09:02;-1.17;114.25
67186;HTU21D;54116;53.518;49.398;2022-11-21T16:11:33;-1.14;114.75
67186;HTU21D;54116;53.518;49.398;2022-11-21T16:14:03;-1.15;114.33
67186;HTU21D;54116;53.518;49.398;2022-11-21T16:16:33;-1.11;114.23
67186;HTU21D;54116;53.518;49.398;2022-11-21T16:18:59;-1.16;113.53
67186;HTU21D;54116;53.518;49.398;2022-11-21T16:21:25;-1.20;113.45
67186;HTU21D;54116;53.518;49.398;2022-11-21T16:23:51;-1.20;113.65
67186;HTU21D;54116;53.518;49.398;2022-11-21T16:26:18;-1.21;113.26
67186;HTU21D;54116;53.518;49.398;2022-11-21T16:28:44;-1.19;114.04
67186;HTU21D;54116;53.518;49.398;2022-11-21T16:31:18;-1.16;113.94
67186;HTU21D;54116;53.518;49.398;2022-11-21T16:33:44;-1.15;113.92
67186;HTU21D;54116;53.518;49.398;2022-11-21T16:36:10;-1.14;113.82
67186;HTU21D;54116;53.518;49.398;2022-11-21T16:38:36;-1.13;114.12
67186;HTU21D;54116;53.518;49.398;2022-11-21T16:41:03;-1.16;113.67
67186;HTU21D;54116;53.518;49.398;2022-11-21T16:43:30;-1.18;113.55
67186;HTU21D;54116;53.518;49.398;2022-11-21T16:46:05;-1.19;113.47
67186;HTU21D;54116;53.518;49.398;2022-11-21T16:48:32;-1.23;113.52
67186;HTU21D;54116;53.518;49.398;2022-11-21T16:51:13;-1.18;114.44
67186;HTU21D;54116;53.518;49.398;2022-11-21T16:53:40;-1.16;114.35
67186;HTU21D;54116;53.518;49.398;2022-11-21T16:56:07;-1.24;113.46
67186;HTU21D;54116;53.518;49.398;2022-11-21T16:58:34;-1.28;113.51
67186;HTU21D;54116;53.518;49.398;2022-11-21T17:01:17;-1.28;113.94
67186;HTU21D;54116;53.518;49.398;2022-11-21T17:03:45;-1.28;114.22
67186;HTU21D;54116;53.518;49.398;2022-11-21T17:06:13;-1.28;113.96
67186;HTU21D;54116;53.518;49.398;2022-11-21T17:08:40;-1.31;114.09
67186;HTU21D;54116;53.518;49.398;2022-11-21T17:11:14;-1.31;114.29
67186;HTU21D;54116;53.518;49.398;2022-11-21T17:13:41;-1.32;114.54
67186;HTU21D;54116;53.518;49.398;2022-11-21T17:16:09;-1.28;114.74
67186;HTU21D;54116;53.518;49.398;2022-11-21T17:18:35;-1.36;113.94
67186;HTU21D;54116;53.518;49.398;2022-11-21T17:21:02;-1.39;114.12
67186;HTU21D;54116;53.518;49.398;2022-11-21T17:23:30;-1.40;114.31
67186;HTU21D;54116;53.518;49.398;2022-11-21T17:26:16;-1.38;114.65
67186;HTU21D;54116;53.518;49.398;2022-11-21T17:28:43;-1.41;114.29
67186;HTU21D;54116;53.518;49.398;2022-11-21T17:31:10;-1.42;114.29
67186;HTU21D;54116;53.518;49.398;2022-11-21T17:33:36;-1.41;114.56
67186;HTU21D;54116;53.518;49.398;2022-11-21T17:36:03;-1.40;114.29